sensor_id;sensor_type;location;lat;lon;timestamp;P1;durP1;ratioP1;P2;durP2;ratioP2
3280;SDS011;1652;51.31805600;6.20194400;2024-01-15T00:00:29;41.83;;;19.70;;
3280;SDS011;1652;51.31805600;6.20194400;2024-01-15T00:02:56;36.23;;;16.93;;
3280;SDS011;1652;51.31805600;6.20194400;2024-01-15T00:05:23;41.57;;;18.33;;
3280;SDS011;1652;51.31805600;6.20194400;2024-01-15T00:07:50;37.10;;;18.63;;
3280;SDS011;1652;51.31805600;6.20194400;2024-01-15T00:10:17;42.77;;;19.27;;
3280;SDS011;1652;51.31805600;6.20194400;2024-01-15T00:12:44;40.80;;;19.53;;
3280;SDS011;1652;51.31805600;6.20194400;2024-01-15T00:15:11;41.67;;;20.37;;
3280;SDS011;1652;51.31805600;6.20194400;2024-01-15T00:17:38;38.77;;;19.00;;
3280;SDS011;1652;51.31805600;6.20194400;2024-01-15T00:20:06;38.83;;;19.30;;
3280;SDS011;1652;51.31805600;6.20194400;2024-01-15T00:22:33;38.53;;;19.40;;
3280;SDS011;1652;51.31805600;6.20194400;2024-01-15T00:25:02;45.37;;;21.20;;
3280;SDS011;1652;51.31805600;6.20194400;2024-01-15T00:27:29;39.23;;;17.73;;
3280;SDS011;1652;51.31805600;6.20194400;2024-01-15T00:29:56;46.10;;;20.90;;
3280;SDS011;1652;51.31805600;6.20194400;2024-01-15T00:32:23;39.57;;;18.20;;
3280;SDS011;1652;51.31805600;6.20194400;2024-01-15T00:34:50;44.80;;;18.90;;
3280;SDS011;1652;51.31805600;6.20194400;2024-01-15T00:37:17;42.90;;;18.50;;
3280;SDS011;1652;51.31805600;6.20194400;2024-01-15T00:39:44;49.73;;;20.33;;
3280;SDS011;1652;51.31805600;6.20194400;2024-01-15T00:42:11;53.93;;;20.70;;
3280;SDS011;1652;51.31805600;6.20194400;2024-01-15T00:44:38;38.73;;;17.17;;
3280;SDS011;1652;51.31805600;6.20194400;2024-01-15T00:47:05;42.93;;;19.10;;
3280;SDS011;1652;51.31805600;6.20194400;2024-01-15T00:49:32;45.80;;;18.90;;
3280;SDS011;1652;51.31805600;6.20194400;2024-01-15T00:51:59;41.23;;;20.27;;
3280;SDS011;1652;51.31805600;6.20194400;2024-01-15T00:54:26;44.40;;;19.23;;
3280;SDS011;1652;51.31805600;6.20194400;2024-01-15T00:56:53;45.53;;;19.33;;
3280;SDS011;1652;51.31805600;6.20194400;2024-01-15T00:59:21;36.53;;;17.00;;
3280;SDS011;1652;51.31805600;6.20194400;2024-01-15T01:01:48;41.57;;;17.20;;
3280;SDS011;1652;51.31805600;6.20194400;2024-01-15T01:04:15;39.93;;;18.93;;
3280;SDS011;1652;51.31805600;6.20194400;2024-01-15T01:06:43;39.70;;;18.27;;
3280;SDS011;1652;51.31805600;6.20194400;2024-01-15T01:09:10;35.43;;;17.70;;
3280;SDS011;1652;51.31805600;6.20194400;2024-01-15T01:11:37;26.87;;;16.47;;
3280;SDS011;1652;51.31805600;6.20194400;2024-01-15T01:14:04;31.30;;;16.70;;
3280;SDS011;1652;51.31805600;6.20194400;2024-01-15T01:16:31;40.27;;;17.17;;
3280;SDS011;1652;51.31805600;6.20194400;2024-01-15T01:19:05;37.40;;;16.57;;
3280;SDS011;1652;51.31805600;6.20194400;2024-01-15T01:21:34;33.73;;;15.80;;
3280;SDS011;1652;51.31805600;6.20194400;2024-01-15T01:24:01;36.00;;;17.07;;
3280;SDS011;1652;51.31805600;6.20194400;2024-01-15T01:26:28;42.53;;;19.27;;
3280;SDS011;1652;51.31805600;6.20194400;2024-01-15T01:28:55;39.43;;;17.23;;
3280;SDS011;1652;51.31805600;6.20194400;2024-01-15T01:31:23;32.60;;;17.40;;
3280;SDS011;1652;51.31805600;6.20194400;2024-01-15T01:33:50;31.30;;;15.67;;
3280;SDS011;1652;51.31805600;6.20194400;2024-01-15T01:36:17;30.40;;;16.10;;
3280;SDS011;1652;51.31805600;6.20194400;2024-01-15T01:38:44;28.23;;;14.63;;
3280;SDS011;1652;51.31805600;6.20194400;2024-01-15T01:41:11;28.07;;;14.83;;
3280;SDS011;1652;51.31805600;6.20194400;2024-01-15T01:43:38;35.20;;;16.17;;
3280;SDS011;1652;51.31805600;6.20194400;2024-01-15T01:46:05;29.00;;;15.20;;
3280;SDS011;1652;51.31805600;6.20194400;2024-01-15T01:48:34;36.20;;;15.37;;
3280;SDS011;1652;51.31805600;6.20194400;2024-01-15T01:51:02;32.13;;;14.40;;
3280;SDS011;1652;51.31805600;6.20194400;2024-01-15T01:53:31;31.47;;;16.57;;
3280;SDS011;1652;51.31805600;6.20194400;2024-01-15T01:55:59;31.40;;;14.80;;
3280;SDS011;1652;51.31805600;6.20194400;2024-01-15T01:58:27;23.87;;;12.23;;
3280;SDS011;1652;51.31805600;6.20194400;2024-01-15T02:00:55;24.80;;;12.07;;
3280;SDS011;1652;51.31805600;6.20194400;2024-01-15T02:03:22;28.57;;;14.63;;
3280;SDS011;1652;51.31805600;6.20194400;2024-01-15T02:05:49;31.80;;;14.33;;
3280;SDS011;1652;51.31805600;6.20194400;2024-01-15T02:08:17;27.10;;;11.93;;
3280;SDS011;1652;51.31805600;6.20194400;2024-01-15T02:10:44;21.03;;;12.80;;
3280;SDS011;1652;51.31805600;6.20194400;2024-01-15T02:13:11;25.13;;;12.30;;
3280;SDS011;1652;51.31805600;6.20194400;2024-01-15T02:15:38;29.87;;;13.90;;
3280;SDS011;1652;51.31805600;6.20194400;2024-01-15T02:18:06;30.00;;;14.47;;
3280;SDS011;1652;51.31805600;6.20194400;2024-01-15T02:20:34;23.90;;;13.73;;
3280;SDS011;1652;51.31805600;6.20194400;2024-01-15T02:23:09;26.63;;;13.23;;
3280;SDS011;1652;51.31805600;6.20194400;2024-01-15T02:25:40;27.70;;;13.00;;
3280;SDS011;1652;51.31805600;6.20194400;2024-01-15T02:28:14;23.20;;;12.70;;
3280;SDS011;1652;51.31805600;6.20194400;2024-01-15T02:30:43;23.83;;;12.77;;
3280;SDS011;1652;51.31805600;6.20194400;2024-01-15T02:33:11;30.73;;;14.67;;
3280;SDS011;1652;51.31805600;6.20194400;2024-01-15T02:35:39;27.20;;;14.73;;
3280;SDS011;1652;51.31805600;6.20194400;2024-01-15T02:38:06;21.93;;;12.97;;
3280;SDS011;1652;51.31805600;6.20194400;2024-01-15T02:40:33;24.03;;;13.23;;
3280;SDS011;1652;51.31805600;6.20194400;2024-01-15T02:43:01;24.53;;;13.70;;
3280;SDS011;1652;51.31805600;6.20194400;2024-01-15T02:48:06;24.83;;;14.47;;
3280;SDS011;1652;51.31805600;6.20194400;2024-01-15T02:50:33;25.47;;;13.73;;
3280;SDS011;1652;51.31805600;6.20194400;2024-01-15T02:53:00;25.57;;;14.30;;
3280;SDS011;1652;51.31805600;6.20194400;2024-01-15T02:55:27;24.40;;;12.43;;
3280;SDS011;1652;51.31805600;6.20194400;2024-01-15T02:57:56;22.67;;;13.80;;
3280;SDS011;1652;51.31805600;6.20194400;2024-01-15T03:00:23;31.97;;;13.23;;
3280;SDS011;1652;51.31805600;6.20194400;2024-01-15T03:02:50;27.70;;;14.20;;
3280;SDS011;1652;51.31805600;6.20194400;2024-01-15T03:05:17;21.70;;;13.10;;
3280;SDS011;1652;51.31805600;6.20194400;2024-01-15T03:07:44;26.93;;;12.90;;
3280;SDS011;1652;51.31805600;6.20194400;2024-01-15T03:10:11;24.60;;;14.03;;
3280;SDS011;1652;51.31805600;6.20194400;2024-01-15T03:12:38;25.53;;;12.67;;
3280;SDS011;1652;51.31805600;6.20194400;2024-01-15T03:15:05;24.90;;;12.00;;
3280;SDS011;1652;51.31805600;6.20194400;2024-01-15T03:17:32;27.37;;;12.90;;
3280;SDS011;1652;51.31805600;6.20194400;2024-01-15T03:19:59;19.80;;;12.67;;
3280;SDS011;1652;51.31805600;6.20194400;2024-01-15T03:22:27;21.50;;;12.50;;
3280;SDS011;1652;51.31805600;6.20194400;2024-01-15T03:24:54;19.33;;;11.67;;
3280;SDS011;1652;51.31805600;6.20194400;2024-01-15T03:27:21;20.50;;;12.20;;
3280;SDS011;1652;51.31805600;6.20194400;2024-01-15T03:29:48;24.73;;;13.00;;
3280;SDS011;1652;51.31805600;6.20194400;2024-01-15T03:32:15;21.97;;;12.77;;
3280;SDS011;1652;51.31805600;6.20194400;2024-01-15T03:34:42;20.80;;;11.70;;
3280;SDS011;1652;51.31805600;6.20194400;2024-01-15T03:37:09;17.73;;;10.67;;
3280;SDS011;1652;51.31805600;6.20194400;2024-01-15T03:39:36;16.77;;;10.33;;
3280;SDS011;1652;51.31805600;6.20194400;2024-01-15T03:42:03;20.20;;;10.47;;
3280;SDS011;1652;51.31805600;6.20194400;2024-01-15T03:44:31;19.10;;;10.37;;
3280;SDS011;1652;51.31805600;6.20194400;2024-01-15T03:46:58;17.10;;;11.30;;
3280;SDS011;1652;51.31805600;6.20194400;2024-01-15T03:49:25;15.47;;;11.40;;
3280;SDS011;1652;51.31805600;6.20194400;2024-01-15T03:51:52;17.90;;;11.10;;
3280;SDS011;1652;51.31805600;6.20194400;2024-01-15T03:54:19;20.03;;;11.20;;
3280;SDS011;1652;51.31805600;6.20194400;2024-01-15T03:56:46;25.87;;;12.30;;
3280;SDS011;1652;51.31805600;6.20194400;2024-01-15T03:59:13;17.70;;;10.20;;
3280;SDS011;1652;51.31805600;6.20194400;2024-01-15T04:01:40;19.60;;;12.10;;
3280;SDS011;1652;51.31805600;6.20194400;2024-01-15T04:04:07;26.93;;;12.37;;
3280;SDS011;1652;51.31805600;6.20194400;2024-01-15T04:06:34;18.00;;;10.40;;
3280;SDS011;1652;51.31805600;6.20194400;2024-01-15T04:09:02;20.03;;;11.17;;
3280;SDS011;1652;51.31805600;6.20194400;2024-01-15T04:11:29;22.37;;;11.60;;
3280;SDS011;1652;51.31805600;6.20194400;2024-01-15T04:13:56;19.77;;;11.17;;
3280;SDS011;1652;51.31805600;6.20194400;2024-01-15T04:16:23;21.33;;;11.20;;
3280;SDS011;1652;51.31805600;6.20194400;2024-01-15T04:18:50;18.73;;;10.60;;
3280;SDS011;1652;51.31805600;6.20194400;2024-01-15T04:21:17;22.63;;;11.70;;
3280;SDS011;1652;51.31805600;6.20194400;2024-01-15T04:23:45;27.63;;;11.77;;
3280;SDS011;1652;51.31805600;6.20194400;2024-01-15T04:26:12;24.37;;;11.77;;
3280;SDS011;1652;51.31805600;6.20194400;2024-01-15T04:28:39;18.80;;;10.53;;
3280;SDS011;1652;51.31805600;6.20194400;2024-01-15T04:31:06;18.67;;;10.40;;
3280;SDS011;1652;51.31805600;6.20194400;2024-01-15T04:33:34;16.53;;;11.13;;
3280;SDS011;1652;51.31805600;6.20194400;2024-01-15T04:36:02;19.90;;;11.43;;
3280;SDS011;1652;51.31805600;6.20194400;2024-01-15T04:38:30;21.07;;;11.43;;
3280;SDS011;1652;51.31805600;6.20194400;2024-01-15T04:40:58;15.27;;;9.80;;
3280;SDS011;1652;51.31805600;6.20194400;2024-01-15T04:43:25;18.80;;;10.27;;
3280;SDS011;1652;51.31805600;6.20194400;2024-01-15T04:45:52;18.10;;;11.87;;
3280;SDS011;1652;51.31805600;6.20194400;2024-01-15T04:48:19;18.37;;;9.83;;
3280;SDS011;1652;51.31805600;6.20194400;2024-01-15T04:50:46;21.60;;;11.07;;
3280;SDS011;1652;51.31805600;6.20194400;2024-01-15T04:53:13;18.53;;;9.60;;
3280;SDS011;1652;51.31805600;6.20194400;2024-01-15T04:55:40;18.43;;;9.50;;
3280;SDS011;1652;51.31805600;6.20194400;2024-01-15T04:58:07;21.60;;;10.30;;
3280;SDS011;1652;51.31805600;6.20194400;2024-01-15T05:00:34;20.63;;;10.50;;
3280;SDS011;1652;51.31805600;6.20194400;2024-01-15T05:03:01;18.63;;;10.23;;
3280;SDS011;1652;51.31805600;6.20194400;2024-01-15T05:05:28;13.60;;;7.87;;
3280;SDS011;1652;51.31805600;6.20194400;2024-01-15T05:07:55;11.70;;;7.93;;
3280;SDS011;1652;51.31805600;6.20194400;2024-01-15T05:10:22;14.00;;;7.87;;
3280;SDS011;1652;51.31805600;6.20194400;2024-01-15T05:12:49;17.30;;;7.70;;
3280;SDS011;1652;51.31805600;6.20194400;2024-01-15T05:15:16;13.93;;;8.40;;
3280;SDS011;1652;51.31805600;6.20194400;2024-01-15T05:17:49;9.20;;;6.60;;
3280;SDS011;1652;51.31805600;6.20194400;2024-01-15T05:20:16;12.03;;;7.00;;
3280;SDS011;1652;51.31805600;6.20194400;2024-01-15T05:22:43;12.03;;;6.50;;
3280;SDS011;1652;51.31805600;6.20194400;2024-01-15T05:25:10;13.13;;;8.77;;
3280;SDS011;1652;51.31805600;6.20194400;2024-01-15T05:27:37;11.03;;;7.73;;
3280;SDS011;1652;51.31805600;6.20194400;2024-01-15T05:30:04;22.57;;;7.50;;
3280;SDS011;1652;51.31805600;6.20194400;2024-01-15T05:32:32;12.67;;;6.80;;
3280;SDS011;1652;51.31805600;6.20194400;2024-01-15T05:34:58;11.17;;;7.70;;
3280;SDS011;1652;51.31805600;6.20194400;2024-01-15T05:37:25;9.73;;;7.37;;
3280;SDS011;1652;51.31805600;6.20194400;2024-01-15T05:39:52;12.10;;;8.83;;
3280;SDS011;1652;51.31805600;6.20194400;2024-01-15T05:42:19;11.93;;;7.87;;
3280;SDS011;1652;51.31805600;6.20194400;2024-01-15T05:44:46;10.43;;;7.07;;
3280;SDS011;1652;51.31805600;6.20194400;2024-01-15T05:47:13;11.53;;;8.00;;
3280;SDS011;1652;51.31805600;6.20194400;2024-01-15T05:49:40;9.20;;;6.67;;
3280;SDS011;1652;51.31805600;6.20194400;2024-01-15T05:52:07;11.93;;;7.17;;
3280;SDS011;1652;51.31805600;6.20194400;2024-01-15T05:54:34;9.00;;;6.07;;
3280;SDS011;1652;51.31805600;6.20194400;2024-01-15T05:57:01;5.70;;;5.20;;
3280;SDS011;1652;51.31805600;6.20194400;2024-01-15T05:59:28;5.30;;;4.80;;
3280;SDS011;1652;51.31805600;6.20194400;2024-01-15T06:01:58;6.10;;;4.80;;
3280;SDS011;1652;51.31805600;6.20194400;2024-01-15T06:04:25;6.37;;;4.73;;
3280;SDS011;1652;51.31805600;6.20194400;2024-01-15T06:06:52;5.30;;;4.80;;
3280;SDS011;1652;51.31805600;6.20194400;2024-01-15T06:09:19;4.63;;;4.23;;
3280;SDS011;1652;51.31805600;6.20194400;2024-01-15T06:11:46;5.27;;;4.50;;
3280;SDS011;1652;51.31805600;6.20194400;2024-01-15T06:14:13;5.53;;;5.03;;
3280;SDS011;1652;51.31805600;6.20194400;2024-01-15T06:16:40;6.43;;;5.70;;
3280;SDS011;1652;51.31805600;6.20194400;2024-01-15T06:19:07;6.50;;;5.87;;
3280;SDS011;1652;51.31805600;6.20194400;2024-01-15T06:21:34;10.37;;;6.53;;
3280;SDS011;1652;51.31805600;6.20194400;2024-01-15T06:24:01;11.87;;;8.23;;
3280;SDS011;1652;51.31805600;6.20194400;2024-01-15T06:26:28;10.60;;;8.63;;
3280;SDS011;1652;51.31805600;6.20194400;2024-01-15T06:28:55;18.93;;;10.30;;
3280;SDS011;1652;51.31805600;6.20194400;2024-01-15T06:31:22;16.57;;;9.43;;
3280;SDS011;1652;51.31805600;6.20194400;2024-01-15T06:33:49;12.20;;;10.00;;
3280;SDS011;1652;51.31805600;6.20194400;2024-01-15T06:36:16;19.20;;;11.97;;
3280;SDS011;1652;51.31805600;6.20194400;2024-01-15T06:38:43;18.23;;;11.97;;
3280;SDS011;1652;51.31805600;6.20194400;2024-01-15T06:41:10;20.20;;;13.13;;
3280;SDS011;1652;51.31805600;6.20194400;2024-01-15T06:43:37;22.77;;;13.90;;
3280;SDS011;1652;51.31805600;6.20194400;2024-01-15T06:46:04;20.50;;;13.40;;
3280;SDS011;1652;51.31805600;6.20194400;2024-01-15T06:48:33;20.00;;;11.90;;
3280;SDS011;1652;51.31805600;6.20194400;2024-01-15T06:51:01;17.10;;;11.50;;
3280;SDS011;1652;51.31805600;6.20194400;2024-01-15T06:53:28;22.60;;;11.47;;
3280;SDS011;1652;51.31805600;6.20194400;2024-01-15T06:55:55;18.30;;;11.73;;
3280;SDS011;1652;51.31805600;6.20194400;2024-01-15T06:58:22;16.73;;;11.33;;
3280;SDS011;1652;51.31805600;6.20194400;2024-01-15T07:00:49;20.00;;;11.13;;
3280;SDS011;1652;51.31805600;6.20194400;2024-01-15T07:03:16;15.83;;;10.50;;
3280;SDS011;1652;51.31805600;6.20194400;2024-01-15T07:05:43;17.33;;;9.80;;
3280;SDS011;1652;51.31805600;6.20194400;2024-01-15T07:08:10;13.57;;;9.53;;
3280;SDS011;1652;51.31805600;6.20194400;2024-01-15T07:10:37;25.03;;;10.60;;
3280;SDS011;1652;51.31805600;6.20194400;2024-01-15T07:13:04;11.80;;;8.77;;
3280;SDS011;1652;51.31805600;6.20194400;2024-01-15T07:15:31;12.27;;;9.20;;
3280;SDS011;1652;51.31805600;6.20194400;2024-01-15T07:17:59;13.40;;;10.63;;
3280;SDS011;1652;51.31805600;6.20194400;2024-01-15T07:20:26;14.33;;;9.73;;
3280;SDS011;1652;51.31805600;6.20194400;2024-01-15T07:22:53;12.43;;;9.50;;
3280;SDS011;1652;51.31805600;6.20194400;2024-01-15T07:25:20;21.10;;;10.80;;
3280;SDS011;1652;51.31805600;6.20194400;2024-01-15T07:27:47;12.70;;;8.93;;
3280;SDS011;1652;51.31805600;6.20194400;2024-01-15T07:30:14;13.20;;;9.40;;
3280;SDS011;1652;51.31805600;6.20194400;2024-01-15T07:32:41;10.30;;;9.00;;
3280;SDS011;1652;51.31805600;6.20194400;2024-01-15T07:35:08;13.07;;;9.17;;
3280;SDS011;1652;51.31805600;6.20194400;2024-01-15T07:37:37;10.97;;;9.20;;
3280;SDS011;1652;51.31805600;6.20194400;2024-01-15T07:40:04;8.67;;;7.80;;
3280;SDS011;1652;51.31805600;6.20194400;2024-01-15T07:42:33;14.73;;;8.47;;
3280;SDS011;1652;51.31805600;6.20194400;2024-01-15T07:45:00;9.73;;;7.70;;
3280;SDS011;1652;51.31805600;6.20194400;2024-01-15T07:47:27;11.20;;;8.80;;
3280;SDS011;1652;51.31805600;6.20194400;2024-01-15T07:49:55;15.27;;;8.40;;
3280;SDS011;1652;51.31805600;6.20194400;2024-01-15T07:52:27;11.00;;;8.43;;
3280;SDS011;1652;51.31805600;6.20194400;2024-01-15T07:54:54;8.87;;;7.97;;
3280;SDS011;1652;51.31805600;6.20194400;2024-01-15T07:57:21;8.03;;;7.23;;
3280;SDS011;1652;51.31805600;6.20194400;2024-01-15T07:59:49;9.60;;;7.60;;
3280;SDS011;1652;51.31805600;6.20194400;2024-01-15T08:02:16;8.70;;;6.73;;
3280;SDS011;1652;51.31805600;6.20194400;2024-01-15T08:04:43;7.73;;;6.80;;
3280;SDS011;1652;51.31805600;6.20194400;2024-01-15T08:07:10;11.50;;;7.80;;
3280;SDS011;1652;51.31805600;6.20194400;2024-01-15T08:09:38;8.07;;;7.03;;
3280;SDS011;1652;51.31805600;6.20194400;2024-01-15T08:12:05;9.73;;;7.03;;
3280;SDS011;1652;51.31805600;6.20194400;2024-01-15T08:14:32;8.27;;;7.43;;
3280;SDS011;1652;51.31805600;6.20194400;2024-01-15T08:17:00;7.83;;;7.07;;
3280;SDS011;1652;51.31805600;6.20194400;2024-01-15T08:19:28;7.50;;;6.70;;
3280;SDS011;1652;51.31805600;6.20194400;2024-01-15T08:21:55;7.07;;;6.47;;
3280;SDS011;1652;51.31805600;6.20194400;2024-01-15T08:24:22;7.37;;;6.70;;
3280;SDS011;1652;51.31805600;6.20194400;2024-01-15T08:26:49;9.37;;;6.67;;
3280;SDS011;1652;51.31805600;6.20194400;2024-01-15T08:29:16;10.67;;;8.30;;
3280;SDS011;1652;51.31805600;6.20194400;2024-01-15T08:31:44;13.00;;;8.23;;
3280;SDS011;1652;51.31805600;6.20194400;2024-01-15T08:34:12;7.50;;;6.80;;
3280;SDS011;1652;51.31805600;6.20194400;2024-01-15T08:36:39;8.20;;;5.27;;
3280;SDS011;1652;51.31805600;6.20194400;2024-01-15T08:39:07;6.30;;;5.70;;
3280;SDS011;1652;51.31805600;6.20194400;2024-01-15T08:41:35;7.17;;;6.57;;
3280;SDS011;1652;51.31805600;6.20194400;2024-01-15T08:44:02;4.30;;;4.00;;
3280;SDS011;1652;51.31805600;6.20194400;2024-01-15T08:46:29;5.67;;;5.17;;
3280;SDS011;1652;51.31805600;6.20194400;2024-01-15T08:48:56;5.43;;;4.93;;
3280;SDS011;1652;51.31805600;6.20194400;2024-01-15T08:51:23;5.10;;;4.60;;
3280;SDS011;1652;51.31805600;6.20194400;2024-01-15T08:53:50;4.50;;;4.10;;
3280;SDS011;1652;51.31805600;6.20194400;2024-01-15T08:56:17;5.87;;;5.27;;
3280;SDS011;1652;51.31805600;6.20194400;2024-01-15T08:58:44;4.37;;;4.07;;
3280;SDS011;1652;51.31805600;6.20194400;2024-01-15T09:01:12;5.10;;;4.70;;
3280;SDS011;1652;51.31805600;6.20194400;2024-01-15T09:03:40;4.60;;;4.20;;
3280;SDS011;1652;51.31805600;6.20194400;2024-01-15T09:06:10;5.70;;;4.87;;
3280;SDS011;1652;51.31805600;6.20194400;2024-01-15T09:08:37;6.80;;;4.80;;
3280;SDS011;1652;51.31805600;6.20194400;2024-01-15T09:11:04;5.13;;;4.67;;
3280;SDS011;1652;51.31805600;6.20194400;2024-01-15T09:13:31;5.27;;;4.70;;
3280;SDS011;1652;51.31805600;6.20194400;2024-01-15T09:15:58;4.70;;;4.30;;
3280;SDS011;1652;51.31805600;6.20194400;2024-01-15T09:18:26;7.57;;;5.50;;
3280;SDS011;1652;51.31805600;6.20194400;2024-01-15T09:20:54;13.93;;;4.20;;
3280;SDS011;1652;51.31805600;6.20194400;2024-01-15T09:23:21;4.73;;;4.33;;
3280;SDS011;1652;51.31805600;6.20194400;2024-01-15T09:25:48;4.23;;;3.83;;
3280;SDS011;1652;51.31805600;6.20194400;2024-01-15T09:28:16;3.87;;;3.67;;
3280;SDS011;1652;51.31805600;6.20194400;2024-01-15T09:30:43;4.30;;;4.00;;
3280;SDS011;1652;51.31805600;6.20194400;2024-01-15T09:33:11;4.90;;;4.50;;
3280;SDS011;1652;51.31805600;6.20194400;2024-01-15T09:35:39;4.47;;;4.13;;
3280;SDS011;1652;51.31805600;6.20194400;2024-01-15T09:38:06;4.90;;;4.50;;
3280;SDS011;1652;51.31805600;6.20194400;2024-01-15T09:40:33;4.40;;;4.00;;
3280;SDS011;1652;51.31805600;6.20194400;2024-01-15T09:43:00;4.57;;;4.27;;
3280;SDS011;1652;51.31805600;6.20194400;2024-01-15T09:48:05;4.10;;;3.80;;
3280;SDS011;1652;51.31805600;6.20194400;2024-01-15T09:50:32;6.83;;;4.73;;
3280;SDS011;1652;51.31805600;6.20194400;2024-01-15T09:53:00;7.67;;;4.10;;
3280;SDS011;1652;51.31805600;6.20194400;2024-01-15T09:55:27;4.30;;;3.90;;
3280;SDS011;1652;51.31805600;6.20194400;2024-01-15T09:57:55;4.10;;;3.80;;
3280;SDS011;1652;51.31805600;6.20194400;2024-01-15T10:00:24;4.30;;;3.90;;
3280;SDS011;1652;51.31805600;6.20194400;2024-01-15T10:02:52;3.37;;;2.70;;
3280;SDS011;1652;51.31805600;6.20194400;2024-01-15T10:05:19;3.17;;;2.97;;
3280;SDS011;1652;51.31805600;6.20194400;2024-01-15T10:07:46;3.57;;;3.37;;
3280;SDS011;1652;51.31805600;6.20194400;2024-01-15T10:10:16;3.00;;;2.80;;
3280;SDS011;1652;51.31805600;6.20194400;2024-01-15T10:12:43;2.80;;;2.60;;
3280;SDS011;1652;51.31805600;6.20194400;2024-01-15T10:15:10;7.07;;;4.90;;
3280;SDS011;1652;51.31805600;6.20194400;2024-01-15T10:17:39;7.10;;;5.27;;
3280;SDS011;1652;51.31805600;6.20194400;2024-01-15T10:20:07;5.43;;;2.70;;
3280;SDS011;1652;51.31805600;6.20194400;2024-01-15T10:22:41;2.70;;;2.50;;
3280;SDS011;1652;51.31805600;6.20194400;2024-01-15T10:25:10;4.87;;;2.70;;
3280;SDS011;1652;51.31805600;6.20194400;2024-01-15T10:27:37;2.73;;;2.53;;
3280;SDS011;1652;51.31805600;6.20194400;2024-01-15T10:30:04;5.60;;;2.60;;
3280;SDS011;1652;51.31805600;6.20194400;2024-01-15T10:32:32;3.40;;;2.17;;
3280;SDS011;1652;51.31805600;6.20194400;2024-01-15T10:34:59;5.27;;;2.30;;
3280;SDS011;1652;51.31805600;6.20194400;2024-01-15T10:37:26;2.67;;;1.93;;
3280;SDS011;1652;51.31805600;6.20194400;2024-01-15T10:39:55;3.17;;;1.63;;
3280;SDS011;1652;51.31805600;6.20194400;2024-01-15T10:42:22;1.90;;;1.60;;
3280;SDS011;1652;51.31805600;6.20194400;2024-01-15T10:44:49;2.37;;;1.30;;
3280;SDS011;1652;51.31805600;6.20194400;2024-01-15T10:47:16;1.73;;;1.10;;
3280;SDS011;1652;51.31805600;6.20194400;2024-01-15T10:49:44;1.33;;;1.20;;
3280;SDS011;1652;51.31805600;6.20194400;2024-01-15T10:52:12;3.77;;;1.20;;
3280;SDS011;1652;51.31805600;6.20194400;2024-01-15T10:54:40;2.10;;;1.37;;
3280;SDS011;1652;51.31805600;6.20194400;2024-01-15T10:57:09;3.20;;;1.70;;
3280;SDS011;1652;51.31805600;6.20194400;2024-01-15T10:59:37;3.60;;;1.33;;
3280;SDS011;1652;51.31805600;6.20194400;2024-01-15T11:02:04;1.30;;;1.20;;
3280;SDS011;1652;51.31805600;6.20194400;2024-01-15T11:04:32;1.53;;;1.43;;
3280;SDS011;1652;51.31805600;6.20194400;2024-01-15T11:06:59;1.97;;;1.47;;
3280;SDS011;1652;51.31805600;6.20194400;2024-01-15T11:09:26;5.60;;;1.57;;
3280;SDS011;1652;51.31805600;6.20194400;2024-01-15T11:12:15;4.07;;;1.60;;
3280;SDS011;1652;51.31805600;6.20194400;2024-01-15T11:14:47;1.40;;;1.30;;
3280;SDS011;1652;51.31805600;6.20194400;2024-01-15T11:17:15;3.47;;;3.17;;
3280;SDS011;1652;51.31805600;6.20194400;2024-01-15T11:19:44;8.50;;;1.50;;
3280;SDS011;1652;51.31805600;6.20194400;2024-01-15T11:24:56;3.20;;;1.60;;
3280;SDS011;1652;51.31805600;6.20194400;2024-01-15T11:27:44;3.40;;;1.73;;
3280;SDS011;1652;51.31805600;6.20194400;2024-01-15T11:30:11;2.80;;;1.37;;
3280;SDS011;1652;51.31805600;6.20194400;2024-01-15T11:32:39;1.80;;;1.70;;
3280;SDS011;1652;51.31805600;6.20194400;2024-01-15T11:35:10;1.87;;;1.77;;
3280;SDS011;1652;51.31805600;6.20194400;2024-01-15T11:43:00;2.50;;;2.30;;
3280;SDS011;1652;51.31805600;6.20194400;2024-01-15T11:48:12;4.13;;;2.90;;
3280;SDS011;1652;51.31805600;6.20194400;2024-01-15T11:50:42;3.97;;;3.33;;
3280;SDS011;1652;51.31805600;6.20194400;2024-01-15T11:56:02;8.13;;;4.90;;
3280;SDS011;1652;51.31805600;6.20194400;2024-01-15T11:58:32;6.40;;;3.47;;
3280;SDS011;1652;51.31805600;6.20194400;2024-01-15T12:01:01;4.13;;;3.40;;
3280;SDS011;1652;51.31805600;6.20194400;2024-01-15T12:03:31;6.20;;;4.63;;
3280;SDS011;1652;51.31805600;6.20194400;2024-01-15T12:06:00;4.93;;;4.10;;
3280;SDS011;1652;51.31805600;6.20194400;2024-01-15T12:08:27;5.20;;;3.67;;
3280;SDS011;1652;51.31805600;6.20194400;2024-01-15T12:10:54;6.90;;;4.93;;
3280;SDS011;1652;51.31805600;6.20194400;2024-01-15T12:13:23;7.13;;;4.97;;
3280;SDS011;1652;51.31805600;6.20194400;2024-01-15T12:15:50;6.13;;;4.50;;
3280;SDS011;1652;51.31805600;6.20194400;2024-01-15T12:18:18;8.17;;;5.50;;
3280;SDS011;1652;51.31805600;6.20194400;2024-01-15T12:20:46;5.23;;;4.73;;
3280;SDS011;1652;51.31805600;6.20194400;2024-01-15T12:23:14;8.37;;;4.27;;
3280;SDS011;1652;51.31805600;6.20194400;2024-01-15T12:25:41;4.83;;;3.93;;
3280;SDS011;1652;51.31805600;6.20194400;2024-01-15T12:28:08;7.63;;;4.23;;
3280;SDS011;1652;51.31805600;6.20194400;2024-01-15T12:30:36;4.80;;;3.50;;
3280;SDS011;1652;51.31805600;6.20194400;2024-01-15T12:33:05;3.63;;;3.33;;
3280;SDS011;1652;51.31805600;6.20194400;2024-01-15T12:35:33;3.70;;;3.37;;
3280;SDS011;1652;51.31805600;6.20194400;2024-01-15T12:38:04;5.97;;;4.23;;
3280;SDS011;1652;51.31805600;6.20194400;2024-01-15T12:40:32;10.73;;;5.70;;
3280;SDS011;1652;51.31805600;6.20194400;2024-01-15T12:43:03;4.07;;;3.50;;
3280;SDS011;1652;51.31805600;6.20194400;2024-01-15T12:48:04;3.00;;;2.73;;
3280;SDS011;1652;51.31805600;6.20194400;2024-01-15T12:50:33;2.90;;;2.70;;
3280;SDS011;1652;51.31805600;6.20194400;2024-01-15T12:53:00;3.20;;;3.00;;
3280;SDS011;1652;51.31805600;6.20194400;2024-01-15T12:55:27;2.43;;;2.33;;
3280;SDS011;1652;51.31805600;6.20194400;2024-01-15T12:57:54;4.67;;;3.07;;
3280;SDS011;1652;51.31805600;6.20194400;2024-01-15T13:00:22;4.27;;;2.17;;
3280;SDS011;1652;51.31805600;6.20194400;2024-01-15T13:02:49;3.53;;;2.27;;
3280;SDS011;1652;51.31805600;6.20194400;2024-01-15T13:05:17;2.93;;;2.10;;
3280;SDS011;1652;51.31805600;6.20194400;2024-01-15T13:07:45;2.60;;;2.27;;
3280;SDS011;1652;51.31805600;6.20194400;2024-01-15T13:10:12;1.97;;;1.37;;
3280;SDS011;1652;51.31805600;6.20194400;2024-01-15T13:12:39;1.63;;;1.23;;
3280;SDS011;1652;51.31805600;6.20194400;2024-01-15T13:15:08;1.27;;;1.10;;
3280;SDS011;1652;51.31805600;6.20194400;2024-01-15T13:17:40;6.33;;;1.27;;
3280;SDS011;1652;51.31805600;6.20194400;2024-01-15T13:20:08;1.60;;;1.17;;
3280;SDS011;1652;51.31805600;6.20194400;2024-01-15T13:22:38;1.87;;;1.50;;